Time,TemperatureF,DewpointF,PressureIn,WindDirection,WindDirectionDegrees,WindSpeedMPH,WindSpeedGustMPH,Humidity,HourlyPrecipIn,Conditions,Clouds,dailyrainin,SolarRadiationWatts/m^2,SoftwareType,DateUTC
2013-05-30 00:02:00,63.0,63.0,-100.00,ESE,116,4.0,13.0,100,0.00,,,0.91,0.000000,,2013-05-30 05:02:00,
2013-05-30 00:32:00,63.0,63.0,-100.00,SSE,152,7.0,15.0,100,0.02,,,0.93,0.000000,,2013-05-30 05:32:00,
2013-05-30 00:43:00,63.0,63.0,-100.00,SSE,152,7.0,15.0,100,0.02,,,0.93,0.000000,,2013-05-30 05:43:00,
2013-05-30 00:52:00,63.0,63.0,-100.00,SSE,152,7.0,15.0,100,0.02,,,0.93,0.000000,,2013-05-30 05:52:00,
2013-05-30 01:01:00,63.0,63.0,-100.00,SSE,152,7.0,15.0,100,0.02,,,0.93,0.000000,,2013-05-30 06:01:00,
2013-05-30 01:32:00,63.0,63.0,-100.00,SSE,164,7.0,14.0,100,0.00,,,0.93,0.000000,,2013-05-30 06:32:00,
2013-05-30 01:42:00,63.0,63.0,-100.00,SSE,164,7.0,14.0,100,0.00,,,0.93,0.000000,,2013-05-30 06:42:00,
2013-05-30 01:52:00,63.0,63.0,-100.00,SSE,164,7.0,14.0,100,0.00,,,0.93,0.000000,,2013-05-30 06:52:00,
2013-05-30 02:01:00,63.0,63.0,-100.00,SSE,164,7.0,14.0,100,0.00,,,0.93,0.000000,,2013-05-30 07:01:00,
2013-05-30 02:32:00,63.0,63.0,-100.00,SE,139,6.0,17.0,100,0.19,,,1.11,0.000000,,2013-05-30 07:32:00,
2013-05-30 02:42:00,63.0,63.0,-100.00,SE,139,6.0,17.0,100,0.19,,,1.11,0.000000,,2013-05-30 07:42:00,
2013-05-30 02:52:00,63.0,63.0,-100.00,SE,139,6.0,17.0,100,0.19,,,1.11,0.000000,,2013-05-30 07:52:00,
2013-05-30 03:02:00,63.0,63.0,-100.00,SE,139,6.0,17.0,100,0.19,,,1.11,0.000000,,2013-05-30 08:02:00,
2013-05-30 03:32:00,64.0,64.0,-100.00,SE,146,8.0,16.0,100,0.01,,,1.12,0.000000,,2013-05-30 08:32:00,
2013-05-30 03:42:00,64.0,64.0,-100.00,SE,146,8.0,16.0,100,0.01,,,1.12,0.000000,,2013-05-30 08:42:00,
2013-05-30 03:53:00,64.0,64.0,-100.00,SE,146,8.0,16.0,100,0.01,,,1.12,0.000000,,2013-05-30 08:53:00,
2013-05-30 04:01:00,64.0,64.0,-100.00,SE,146,8.0,16.0,100,0.01,,,1.12,0.000000,,2013-05-30 09:01:00,
2013-05-30 04:33:00,64.0,64.0,-100.00,SSE,148,9.0,24.0,100,0.01,,,1.13,0.000000,,2013-05-30 09:33:00,
2013-05-30 04:43:00,64.0,64.0,-100.00,SSE,148,9.0,24.0,100,0.01,,,1.13,0.000000,,2013-05-30 09:43:00,
2013-05-30 04:53:00,64.0,64.0,-100.00,SSE,148,9.0,24.0,100,0.01,,,1.13,0.000000,,2013-05-30 09:53:00,
2013-05-30 05:03:00,64.0,64.0,-100.00,SSE,148,9.0,24.0,100,0.01,,,1.13,0.000000,,2013-05-30 10:03:00,
2013-05-30 05:33:00,64.0,64.0,-100.00,SE,144,10.0,22.0,100,0.00,,,1.13,0.000000,,2013-05-30 10:33:00,
2013-05-30 05:42:00,64.0,64.0,-100.00,SE,144,10.0,22.0,100,0.00,,,1.13,0.000000,,2013-05-30 10:42:00,
2013-05-30 05:52:00,64.0,64.0,-100.00,SE,144,10.0,22.0,100,0.00,,,1.13,0.000000,,2013-05-30 10:52:00,
2013-05-30 06:03:00,64.0,64.0,-100.00,SE,144,10.0,22.0,100,0.00,,,1.13,0.000000,,2013-05-30 11:03:00,
2013-05-30 06:32:00,65.0,65.0,-100.00,SSE,149,9.0,17.0,100,0.00,,,1.13,12.000000,,2013-05-30 11:32:00,
2013-05-30 06:42:00,65.0,65.0,-100.00,SSE,149,9.0,17.0,100,0.00,,,1.13,12.000000,,2013-05-30 11:42:00,
2013-05-30 06:52:00,65.0,65.0,-100.00,SSE,149,9.0,17.0,100,0.00,,,1.13,12.000000,,2013-05-30 11:52:00,
2013-05-30 07:01:00,65.0,65.0,-100.00,SSE,149,9.0,17.0,100,0.00,,,1.13,12.000000,,2013-05-30 12:01:00,
2013-05-30 07:32:00,66.0,66.0,-100.00,SSE,154,10.0,21.0,100,0.00,,,1.13,73.000000,,2013-05-30 12:32:00,
2013-05-30 07:42:00,66.0,66.0,-100.00,SSE,154,10.0,21.0,100,0.00,,,1.13,73.000000,,2013-05-30 12:42:00,
2013-05-30 07:52:00,66.0,66.0,-100.00,SSE,154,10.0,21.0,100,0.00,,,1.13,73.000000,,2013-05-30 12:52:00,
2013-05-30 08:01:00,66.0,66.0,-100.00,SSE,154,10.0,21.0,100,0.00,,,1.13,73.000000,,2013-05-30 13:01:00,
2013-05-30 08:32:00,69.0,67.0,-100.00,SSE,154,11.0,19.0,93,0.00,,,1.13,147.000000,,2013-05-30 13:32:00,
2013-05-30 08:42:00,69.0,67.0,-100.00,SSE,154,11.0,19.0,93,0.00,,,1.13,147.000000,,2013-05-30 13:42:00,
2013-05-30 08:52:00,69.0,67.0,-100.00,SSE,154,11.0,19.0,93,0.00,,,1.13,147.000000,,2013-05-30 13:52:00,
2013-05-30 09:01:00,69.0,67.0,-100.00,SSE,154,11.0,19.0,93,0.00,,,1.13,147.000000,,2013-05-30 14:01:00,
2013-05-30 09:32:00,71.0,67.0,-100.00,South,169,10.0,19.0,86,0.00,,,1.13,223.000000,,2013-05-30 14:32:00,
2013-05-30 09:42:00,71.0,67.0,-100.00,South,169,10.0,19.0,86,0.00,,,1.13,223.000000,,2013-05-30 14:42:00,
2013-05-30 09:52:00,71.0,67.0,-100.00,South,169,10.0,19.0,86,0.00,,,1.13,223.000000,,2013-05-30 14:52:00,
2013-05-30 10:01:00,71.0,67.0,-100.00,South,169,10.0,19.0,86,0.00,,,1.13,223.000000,,2013-05-30 15:01:00,
2013-05-30 10:33:00,74.0,66.0,-100.00,South,183,11.0,25.0,77,0.00,,,1.13,481.000000,,2013-05-30 15:33:00,
2013-05-30 10:43:00,74.0,66.0,-100.00,South,183,11.0,25.0,77,0.00,,,1.13,481.000000,,2013-05-30 15:43:00,
2013-05-30 10:53:00,74.0,66.0,-100.00,South,183,11.0,25.0,77,0.00,,,1.13,481.000000,,2013-05-30 15:53:00,
2013-05-30 11:03:00,74.0,66.0,-100.00,South,183,11.0,25.0,77,0.00,,,1.13,481.000000,,2013-05-30 16:03:00,
2013-05-30 11:33:00,77.0,69.0,-100.00,SSE,168,11.0,34.0,76,0.00,,,1.13,446.000000,,2013-05-30 16:33:00,
2013-05-30 11:42:00,77.0,69.0,-100.00,SSE,168,11.0,34.0,76,0.00,,,1.13,446.000000,,2013-05-30 16:42:00,
2013-05-30 11:53:00,77.0,69.0,-100.00,SSE,168,11.0,34.0,76,0.00,,,1.13,446.000000,,2013-05-30 16:53:00,
2013-05-30 12:02:00,77.0,69.0,-100.00,SSE,168,11.0,34.0,76,0.00,,,1.13,446.000000,,2013-05-30 17:02:00,
2013-05-30 12:22:00,76.0,65.0,-100.00,SSE,168,14.0,38.0,70,0.00,,,1.13,489.000000,,2013-05-30 17:22:00,
2013-05-30 12:32:00,76.0,65.0,-100.00,SSE,168,14.0,38.0,70,0.00,,,1.13,489.000000,,2013-05-30 17:32:00,
2013-05-30 12:42:00,76.0,65.0,-100.00,SSE,168,14.0,38.0,70,0.00,,,1.13,489.000000,,2013-05-30 17:42:00,
2013-05-30 12:52:00,76.0,65.0,-100.00,SSE,168,14.0,38.0,70,0.00,,,1.13,489.000000,,2013-05-30 17:52:00,
2013-05-30 13:02:00,76.0,65.0,-100.00,SSE,168,14.0,38.0,70,0.00,,,1.13,489.000000,,2013-05-30 18:02:00,
2013-05-30 13:32:00,77.0,64.0,-100.00,South,180,12.0,26.0,64,0.00,,,1.13,448.000000,,2013-05-30 18:32:00,
2013-05-30 13:43:00,77.0,64.0,-100.00,South,180,12.0,26.0,64,0.00,,,1.13,448.000000,,2013-05-30 18:43:00,
2013-05-30 13:52:00,77.0,64.0,-100.00,South,180,12.0,26.0,64,0.00,,,1.13,448.000000,,2013-05-30 18:52:00,
2013-05-30 14:01:00,77.0,64.0,-100.00,South,180,12.0,26.0,64,0.00,,,1.13,448.000000,,2013-05-30 19:01:00,
2013-05-30 14:32:00,72.0,62.0,-100.00,South,170,11.0,28.0,71,0.00,,,1.13,280.000000,,2013-05-30 19:32:00,
2013-05-30 14:42:00,72.0,62.0,-100.00,South,170,11.0,28.0,71,0.00,,,1.13,280.000000,,2013-05-30 19:42:00,
2013-05-30 14:53:00,72.0,62.0,-100.00,South,170,11.0,28.0,71,0.00,,,1.13,280.000000,,2013-05-30 19:53:00,
2013-05-30 15:01:00,72.0,62.0,-100.00,South,170,11.0,28.0,71,0.00,,,1.13,280.000000,,2013-05-30 20:01:00,
2013-05-30 15:33:00,72.0,67.0,-100.00,South,171,10.0,21.0,84,0.00,,,1.13,158.000000,,2013-05-30 20:33:00,
2013-05-30 15:42:00,72.0,67.0,-100.00,South,171,10.0,21.0,84,0.00,,,1.13,158.000000,,2013-05-30 20:42:00,
2013-05-30 15:52:00,72.0,67.0,-100.00,South,171,10.0,21.0,84,0.00,,,1.13,158.000000,,2013-05-30 20:52:00,
2013-05-30 16:01:00,72.0,67.0,-100.00,South,171,10.0,21.0,84,0.00,,,1.13,158.000000,,2013-05-30 21:01:00,
2013-05-30 16:33:00,75.0,65.0,-100.00,South,190,12.0,22.0,72,0.00,,,1.13,448.000000,,2013-05-30 21:33:00,
2013-05-30 16:43:00,75.0,65.0,-100.00,South,190,12.0,22.0,72,0.00,,,1.13,448.000000,,2013-05-30 21:43:00,
2013-05-30 16:53:00,75.0,65.0,-100.00,South,190,12.0,22.0,72,0.00,,,1.13,448.000000,,2013-05-30 21:53:00,
2013-05-30 17:02:00,75.0,65.0,-100.00,South,190,12.0,22.0,72,0.00,,,1.13,448.000000,,2013-05-30 22:02:00,
2013-05-30 17:33:00,79.0,67.0,-100.00,South,169,11.0,20.0,67,0.00,,,0.82,487.000000,,2013-05-30 22:33:00,
2013-05-30 17:42:00,79.0,67.0,-100.00,South,169,11.0,20.0,67,0.00,,,0.82,487.000000,,2013-05-30 22:42:00,
2013-05-30 17:52:00,79.0,67.0,-100.00,South,169,11.0,20.0,67,0.00,,,0.82,487.000000,,2013-05-30 22:52:00,
2013-05-30 18:02:00,79.0,67.0,-100.00,South,169,11.0,20.0,67,0.00,,,0.82,487.000000,,2013-05-30 23:02:00,
2013-05-30 18:32:00,79.0,62.0,-100.00,South,174,10.0,20.0,57,0.00,,,0.61,414.000000,,2013-05-30 23:32:00,
2013-05-30 18:42:00,79.0,62.0,-100.00,South,174,10.0,20.0,57,0.00,,,0.61,414.000000,,2013-05-30 23:42:00,
2013-05-30 18:52:00,79.0,62.0,-100.00,South,174,10.0,20.0,57,0.00,,,0.61,414.000000,,2013-05-30 23:52:00,
2013-05-30 19:01:00,79.0,62.0,-100.00,South,174,10.0,20.0,57,0.00,,,0.61,414.000000,,2013-05-31 00:01:00,
2013-05-30 19:22:00,76.0,62.0,-100.00,SSE,153,8.0,17.0,63,0.00,,,0.51,142.000000,,2013-05-31 00:22:00,
2013-05-30 19:32:00,76.0,62.0,-100.00,SSE,153,8.0,17.0,63,0.00,,,0.51,142.000000,,2013-05-31 00:32:00,
2013-05-30 19:42:00,76.0,62.0,-100.00,SSE,153,8.0,17.0,63,0.00,,,0.51,142.000000,,2013-05-31 00:42:00,
2013-05-30 19:52:00,76.0,62.0,-100.00,SSE,153,8.0,17.0,63,0.00,,,0.51,142.000000,,2013-05-31 00:52:00,
2013-05-30 20:01:00,76.0,62.0,-100.00,SSE,153,8.0,17.0,63,0.00,,,0.51,142.000000,,2013-05-31 01:01:00,
2013-05-30 20:32:00,71.0,63.0,-100.00,SE,134,9.0,23.0,77,0.02,,,-99.99,37.000000,,2013-05-31 01:32:00,
2013-05-30 20:42:00,71.0,63.0,-100.00,SE,134,9.0,23.0,77,0.02,,,-99.99,37.000000,,2013-05-31 01:42:00,
2013-05-30 20:52:00,71.0,63.0,-100.00,SE,134,9.0,23.0,77,0.02,,,-99.99,37.000000,,2013-05-31 01:52:00,
2013-05-30 21:02:00,71.0,63.0,-100.00,SE,134,9.0,23.0,77,0.02,,,-99.99,37.000000,,2013-05-31 02:02:00,
2013-05-30 21:32:00,68.0,65.0,-100.00,South,182,8.0,28.0,91,0.05,,,0.34,1.000000,,2013-05-31 02:32:00,
2013-05-30 21:42:00,68.0,65.0,-100.00,South,182,8.0,28.0,91,0.05,,,0.34,1.000000,,2013-05-31 02:42:00,
2013-05-30 21:52:00,68.0,65.0,-100.00,South,182,8.0,28.0,91,0.05,,,0.34,1.000000,,2013-05-31 02:52:00,
2013-05-30 22:01:00,68.0,65.0,-100.00,South,182,8.0,28.0,91,0.05,,,0.34,1.000000,,2013-05-31 03:01:00,
2013-05-30 22:33:00,67.0,65.0,-100.00,South,173,9.0,17.0,93,0.00,,,0.30,0.000000,,2013-05-31 03:33:00,
2013-05-30 22:43:00,67.0,65.0,-100.00,South,173,9.0,17.0,93,0.00,,,0.30,0.000000,,2013-05-31 03:43:00,
2013-05-30 22:53:00,67.0,65.0,-100.00,South,173,9.0,17.0,93,0.00,,,0.30,0.000000,,2013-05-31 03:53:00,
2013-05-30 23:02:00,67.0,65.0,-100.00,South,173,9.0,17.0,93,0.00,,,0.30,0.000000,,2013-05-31 04:02:00,
2013-05-30 23:33:00,65.0,63.0,-100.00,South,176,8.0,20.0,92,0.00,,,0.30,0.000000,,2013-05-31 04:33:00,
2013-05-30 23:42:00,65.0,63.0,-100.00,South,176,8.0,20.0,92,0.00,,,0.30,0.000000,,2013-05-31 04:42:00,
2013-05-30 23:53:00,65.0,63.0,-100.00,South,176,8.0,20.0,92,0.00,,,0.30,0.000000,,2013-05-31 04:53:00,